Time,TemperatureF,DewpointF,PressureIn,WindDirection,WindDirectionDegrees,WindSpeedMPH,WindSpeedGustMPH,Humidity,HourlyPrecipIn,Conditions,Clouds,dailyrainin,SoftwareType,DateUTC
2013-03-23 00:03:00,26.0,20.0,-100.00,WSW,245,0.0,0.0,78,0.00,,,-99.99,,2013-03-23 04:03:00,
2013-03-23 00:12:00,25.0,20.0,-100.00,SSW,210,0.0,1.0,83,0.00,,,-99.99,,2013-03-23 04:12:00,
2013-03-23 00:23:00,25.0,20.0,-100.00,SSW,205,0.0,0.0,82,0.00,,,-99.99,,2013-03-23 04:23:00,
2013-03-23 00:32:00,25.0,20.0,-100.00,South,190,0.0,0.0,81,0.00,,,-99.99,,2013-03-23 04:32:00,
2013-03-23 00:43:00,25.0,20.0,-100.00,SW,215,0.0,0.0,82,0.00,,,-99.99,,2013-03-23 04:43:00,
2013-03-23 00:53:00,25.0,20.0,-100.00,SW,215,0.0,1.0,80,0.00,,,-99.99,,2013-03-23 04:53:00,
2013-03-23 01:02:00,24.0,20.0,-100.00,SSW,210,0.0,0.0,83,0.00,,,-99.99,,2013-03-23 05:02:00,
2013-03-23 01:12:00,24.0,19.0,-100.00,SSW,210,0.0,0.0,80,0.00,,,-99.99,,2013-03-23 05:12:00,
2013-03-23 01:22:00,24.0,19.0,-100.00,SSW,210,0.0,1.0,83,0.00,,,-99.99,,2013-03-23 05:22:00,
2013-03-23 01:32:00,24.0,19.0,-100.00,SSW,210,0.0,0.0,82,0.00,,,-99.99,,2013-03-23 05:32:00,
2013-03-23 01:42:00,24.0,19.0,-100.00,SW,220,0.0,1.0,82,0.00,,,-99.99,,2013-03-23 05:42:00,
2013-03-23 01:52:00,23.0,19.0,-100.00,SSW,210,0.0,0.0,83,0.00,,,-99.99,,2013-03-23 05:52:00,
2013-03-23 02:02:00,23.0,19.0,-100.00,SW,220,0.0,0.0,84,0.00,,,-99.99,,2013-03-23 06:02:00,
2013-03-23 02:12:00,23.0,19.0,-100.00,South,190,0.0,0.0,85,0.00,,,-99.99,,2013-03-23 06:12:00,
2013-03-23 02:22:00,23.0,19.0,-100.00,South,190,0.0,2.0,85,0.00,,,-99.99,,2013-03-23 06:22:00,
2013-03-23 02:32:00,23.0,19.0,-100.00,SSW,200,0.0,0.0,85,0.00,,,-99.99,,2013-03-23 06:32:00,
2013-03-23 02:42:00,23.0,19.0,-100.00,South,180,0.0,0.0,85,0.00,,,-99.99,,2013-03-23 06:42:00,
2013-03-23 02:52:00,22.0,19.0,-100.00,SSW,205,0.0,0.0,86,0.00,,,-99.99,,2013-03-23 06:52:00,
2013-03-23 03:02:00,22.0,19.0,-100.00,SSW,200,0.0,1.0,87,0.00,,,-99.99,,2013-03-23 07:02:00,
2013-03-23 03:12:00,22.0,19.0,-100.00,South,180,0.0,2.0,87,0.00,,,-99.99,,2013-03-23 07:12:00,
2013-03-23 03:22:00,22.0,18.0,-100.00,South,180,0.0,0.0,85,0.00,,,-99.99,,2013-03-23 07:22:00,
2013-03-23 03:32:00,22.0,19.0,-100.00,SW,230,0.0,0.0,85,0.00,,,-99.99,,2013-03-23 07:32:00,
2013-03-23 03:42:00,22.0,19.0,-100.00,SW,215,0.0,0.0,87,0.00,,,-99.99,,2013-03-23 07:42:00,
2013-03-23 03:52:00,21.0,18.0,-100.00,SSW,195,0.0,1.0,88,0.00,,,-99.99,,2013-03-23 07:52:00,
2013-03-23 04:02:00,22.0,18.0,-100.00,SW,215,0.0,0.0,87,0.00,,,-99.99,,2013-03-23 08:02:00,
2013-03-23 04:13:00,21.0,18.0,-100.00,SSW,205,0.0,0.0,88,0.00,,,-99.99,,2013-03-23 08:13:00,
2013-03-23 04:22:00,21.0,18.0,-100.00,SSW,195,0.0,2.0,88,0.00,,,-99.99,,2013-03-23 08:22:00,
2013-03-23 04:32:00,21.0,18.0,-100.00,SW,230,0.0,0.0,89,0.00,,,-99.99,,2013-03-23 08:32:00,
2013-03-23 04:42:00,21.0,18.0,-100.00,South,190,0.0,0.0,88,0.00,,,-99.99,,2013-03-23 08:42:00,
2013-03-23 04:52:00,21.0,18.0,-100.00,SW,235,0.0,0.0,88,0.00,,,-99.99,,2013-03-23 08:52:00,
2013-03-23 05:02:00,21.0,18.0,-100.00,South,190,0.0,0.0,88,0.00,,,-99.99,,2013-03-23 09:02:00,
2013-03-23 05:12:00,20.0,18.0,-100.00,SSW,200,0.0,1.0,89,0.00,,,-99.99,,2013-03-23 09:12:00,
2013-03-23 05:22:00,21.0,19.0,-100.00,SSW,195,0.0,0.0,89,0.00,,,-99.99,,2013-03-23 09:22:00,
2013-03-23 05:33:00,21.0,19.0,-100.00,South,180,0.0,0.0,90,0.00,,,-99.99,,2013-03-23 09:33:00,
2013-03-23 05:42:00,22.0,19.0,-100.00,SW,225,0.0,1.0,89,0.00,,,-99.99,,2013-03-23 09:42:00,
2013-03-23 05:53:00,21.0,18.0,-100.00,SW,235,0.0,0.0,88,0.00,,,-99.99,,2013-03-23 09:53:00,
2013-03-23 06:03:00,21.0,19.0,-100.00,SW,215,0.0,0.0,88,0.00,,,-99.99,,2013-03-23 10:03:00,
2013-03-23 06:13:00,22.0,19.0,-100.00,WSW,240,0.0,0.0,87,0.00,,,-99.99,,2013-03-23 10:13:00,
2013-03-23 06:23:00,22.0,19.0,-100.00,SW,225,0.0,0.0,87,0.00,,,-99.99,,2013-03-23 10:23:00,
2013-03-23 06:34:00,22.0,19.0,-100.00,SW,215,0.0,0.0,86,0.00,,,-99.99,,2013-03-23 10:34:00,
2013-03-23 06:42:00,22.0,19.0,-100.00,SSW,200,0.0,0.0,88,0.00,,,-99.99,,2013-03-23 10:42:00,
2013-03-23 06:52:00,22.0,19.0,-100.00,South,170,0.0,0.0,87,0.00,,,-99.99,,2013-03-23 10:52:00,
2013-03-23 07:03:00,22.0,19.0,-100.00,SW,220,0.0,0.0,87,0.00,,,-99.99,,2013-03-23 11:03:00,
2013-03-23 07:12:00,23.0,19.0,-100.00,SSW,205,0.0,1.0,86,0.00,,,-99.99,,2013-03-23 11:12:00,
2013-03-23 07:22:00,23.0,20.0,-100.00,SSW,205,0.0,0.0,86,0.00,,,-99.99,,2013-03-23 11:22:00,
2013-03-23 07:32:00,24.0,20.0,-100.00,SW,215,0.0,0.0,85,0.00,,,-99.99,,2013-03-23 11:32:00,
2013-03-23 07:42:00,24.0,20.0,-100.00,SW,230,0.0,0.0,84,0.00,,,-99.99,,2013-03-23 11:42:00,
2013-03-23 07:51:00,24.0,20.0,-100.00,SSW,205,0.0,0.0,83,0.00,,,-99.99,,2013-03-23 11:51:00,
2013-03-23 08:02:00,24.0,20.0,-100.00,WSW,240,0.0,1.0,83,0.00,,,-99.99,,2013-03-23 12:02:00,
2013-03-23 08:13:00,25.0,20.0,-100.00,WSW,240,0.0,1.0,82,0.00,,,-99.99,,2013-03-23 12:13:00,
2013-03-23 08:22:00,25.0,20.0,-100.00,SW,230,0.0,1.0,82,0.00,,,-99.99,,2013-03-23 12:22:00,
2013-03-23 08:33:00,25.0,20.0,-100.00,WSW,240,0.0,1.0,82,0.00,,,-99.99,,2013-03-23 12:33:00,
2013-03-23 08:42:00,26.0,21.0,-100.00,SW,220,0.0,2.0,82,0.00,,,-99.99,,2013-03-23 12:42:00,
2013-03-23 08:52:00,26.0,21.0,-100.00,WSW,250,0.0,1.0,81,0.00,,,-99.99,,2013-03-23 12:52:00,
2013-03-23 09:03:00,26.0,21.0,-100.00,SW,215,0.0,0.0,81,0.00,,,-99.99,,2013-03-23 13:03:00,
2013-03-23 09:12:00,27.0,21.0,-100.00,SW,220,0.0,0.0,79,0.00,,,-99.99,,2013-03-23 13:12:00,
2013-03-23 09:23:00,28.0,21.0,-100.00,West,275,0.0,0.0,77,0.00,,,-99.99,,2013-03-23 13:23:00,
2013-03-23 09:33:00,28.0,22.0,-100.00,NW,310,0.0,0.0,76,0.00,,,-99.99,,2013-03-23 13:33:00,
2013-03-23 09:42:00,29.0,22.0,-100.00,NNE,25,0.0,1.0,77,0.00,,,-99.99,,2013-03-23 13:42:00,
2013-03-23 09:52:00,29.0,22.0,-100.00,NW,315,0.0,0.0,73,0.00,,,-99.99,,2013-03-23 13:52:00,
2013-03-23 10:03:00,31.0,22.0,-100.00,SW,215,0.0,1.0,70,0.00,,,-99.99,,2013-03-23 14:03:00,
2013-03-23 10:12:00,31.0,23.0,-100.00,NNE,20,0.0,2.0,71,0.00,,,-99.99,,2013-03-23 14:12:00,
2013-03-23 10:22:00,32.0,24.0,-100.00,NE,50,0.0,1.0,70,0.00,,,-99.99,,2013-03-23 14:22:00,
2013-03-23 10:32:00,34.0,25.0,-100.00,NNE,20,0.0,1.0,67,0.00,,,-99.99,,2013-03-23 14:32:00,
2013-03-23 10:43:00,35.0,24.0,-100.00,WSW,250,0.0,2.0,63,0.00,,,-99.99,,2013-03-23 14:43:00,
2013-03-23 10:52:00,36.0,24.0,-100.00,West,260,0.0,0.0,61,0.00,,,-99.99,,2013-03-23 14:52:00,
2013-03-23 11:03:00,37.0,24.0,-100.00,East,95,0.0,0.0,57,0.00,,,-99.99,,2013-03-23 15:03:00,
2013-03-23 11:12:00,40.0,24.0,-100.00,NNE,30,0.0,1.0,53,0.00,,,-99.99,,2013-03-23 15:12:00,
2013-03-23 11:22:00,41.0,20.0,-100.00,SSE,150,0.0,1.0,41,1.69,,,-99.99,,2013-03-23 15:22:00,
2013-03-23 11:33:00,42.0,16.0,-100.00,North,10,0.0,1.0,34,0.00,,,-99.99,,2013-03-23 15:33:00,
2013-03-23 11:43:00,43.0,17.0,-100.00,WNW,285,1.0,4.0,33,0.00,,,-99.99,,2013-03-23 15:43:00,
2013-03-23 11:52:00,43.0,15.0,-100.00,WSW,255,3.0,9.0,32,0.00,,,-99.99,,2013-03-23 15:52:00,
2013-03-23 12:03:00,44.0,18.0,-100.00,West,260,1.0,9.0,34,6.22,,,-99.99,,2013-03-23 16:03:00,
2013-03-23 12:13:00,43.0,19.0,-100.00,West,270,2.0,9.0,37,0.00,,,-99.99,,2013-03-23 16:13:00,
2013-03-23 12:23:00,43.0,16.0,-100.00,SSW,210,2.0,6.0,33,6.77,,,-99.99,,2013-03-23 16:23:00,
2013-03-23 12:33:00,44.0,16.0,-100.00,WNW,300,5.0,10.0,32,0.00,,,-99.99,,2013-03-23 16:33:00,
2013-03-23 12:43:00,45.0,17.0,-100.00,SW,220,3.0,7.0,30,10.75,,,-99.99,,2013-03-23 16:43:00,
2013-03-23 12:53:00,45.0,16.0,-100.00,ESE,110,1.0,7.0,30,2.83,,,-99.99,,2013-03-23 16:53:00,
2013-03-23 13:03:00,46.0,16.0,-100.00,NW,305,2.0,7.0,29,16.42,,,-99.99,,2013-03-23 17:03:00,
2013-03-23 13:12:00,46.0,18.0,-100.00,WSW,245,7.0,10.0,31,1.10,,,-99.99,,2013-03-23 17:12:00,
2013-03-23 13:22:00,46.0,15.0,-100.00,North,0,2.0,10.0,28,1.10,,,-99.99,,2013-03-23 17:22:00,
2013-03-23 13:33:00,46.0,17.0,-100.00,NW,315,1.0,11.0,30,10.20,,,-99.99,,2013-03-23 17:33:00,
2013-03-23 13:42:00,46.0,16.0,-100.00,SW,220,4.0,12.0,29,6.22,,,-99.99,,2013-03-23 17:42:00,
2013-03-23 13:52:00,46.0,16.0,-100.00,SW,220,4.0,12.0,29,6.22,,,-99.99,,2013-03-23 17:52:00,
2013-03-23 14:03:00,47.0,15.0,-100.00,WSW,245,6.0,12.0,27,0.00,,,-99.99,,2013-03-23 18:03:00,
2013-03-23 14:12:00,48.0,17.0,-100.00,WNW,290,4.0,9.0,28,6.22,,,-99.99,,2013-03-23 18:12:00,
2013-03-23 14:22:00,47.0,17.0,-100.00,WSW,255,6.0,12.0,29,0.00,,,-99.99,,2013-03-23 18:22:00,
2013-03-23 14:32:00,48.0,16.0,-100.00,West,260,7.0,12.0,26,0.55,,,-99.99,,2013-03-23 18:32:00,
2013-03-23 14:42:00,49.0,19.0,-100.00,SSW,205,8.0,12.0,30,7.36,,,-99.99,,2013-03-23 18:42:00,
2013-03-23 14:52:00,50.0,18.0,-100.00,WSW,240,5.0,11.0,27,0.55,,,-99.99,,2013-03-23 18:52:00,
2013-03-23 15:03:00,47.0,16.0,-100.00,SSW,200,6.0,13.0,28,3.94,,,-99.99,,2013-03-23 19:03:00,
2013-03-23 15:13:00,50.0,17.0,-100.00,West,265,3.0,7.0,26,2.24,,,-99.99,,2013-03-23 19:13:00,
2013-03-23 15:23:00,50.0,19.0,-100.00,WSW,255,5.0,11.0,28,0.00,,,-99.99,,2013-03-23 19:23:00,
2013-03-23 15:32:00,50.0,17.0,-100.00,SW,230,2.0,8.0,26,0.00,,,-99.99,,2013-03-23 19:32:00,
2013-03-23 15:42:00,49.0,18.0,-100.00,West,280,4.0,10.0,28,6.22,,,-99.99,,2013-03-23 19:42:00,
2013-03-23 15:52:00,49.0,17.0,-100.00,WNW,295,5.0,9.0,28,2.83,,,-99.99,,2013-03-23 19:52:00,
2013-03-23 16:03:00,50.0,19.0,-100.00,WNW,295,7.0,12.0,29,3.94,,,-99.99,,2013-03-23 20:03:00,
2013-03-23 16:13:00,50.0,17.0,-100.00,ENE,60,0.0,7.0,26,2.83,,,-99.99,,2013-03-23 20:13:00,
2013-03-23 16:22:00,51.0,20.0,-100.00,WNW,290,7.0,9.0,28,0.00,,,-99.99,,2013-03-23 20:22:00,
2013-03-23 16:32:00,51.0,18.0,-100.00,WSW,245,2.0,9.0,27,2.24,,,-99.99,,2013-03-23 20:32:00,
2013-03-23 16:42:00,50.0,17.0,-100.00,NNW,330,2.0,9.0,26,5.08,,,-99.99,,2013-03-23 20:42:00,
2013-03-23 16:52:00,49.0,17.0,-100.00,NNW,340,3.0,6.0,26,0.55,,,-99.99,,2013-03-23 20:52:00,
2013-03-23 17:02:00,50.0,18.0,-100.00,NNW,345,1.0,9.0,27,6.22,,,-99.99,,2013-03-23 21:02:00,
2013-03-23 17:12:00,50.0,16.0,-100.00,NW,325,0.0,7.0,25,0.55,,,-99.99,,2013-03-23 21:12:00,
2013-03-23 17:22:00,51.0,19.0,-100.00,WSW,240,2.0,7.0,27,0.00,,,-99.99,,2013-03-23 21:22:00,
2013-03-23 17:33:00,50.0,18.0,-100.00,West,265,1.0,9.0,28,0.00,,,-99.99,,2013-03-23 21:33:00,
2013-03-23 17:43:00,50.0,17.0,-100.00,NW,315,4.0,8.0,26,0.00,,,-99.99,,2013-03-23 21:43:00,
2013-03-23 17:53:00,49.0,15.0,-100.00,North,10,4.0,8.0,25,0.00,,,-99.99,,2013-03-23 21:53:00,
2013-03-23 18:03:00,50.0,16.0,-100.00,North,0,1.0,6.0,25,3.39,,,-99.99,,2013-03-23 22:03:00,
2013-03-23 18:13:00,49.0,16.0,-100.00,NNE,15,3.0,6.0,27,0.55,,,-99.99,,2013-03-23 22:13:00,
2013-03-23 18:23:00,49.0,16.0,-100.00,NE,45,1.0,6.0,26,0.00,,,-99.99,,2013-03-23 22:23:00,
2013-03-23 18:33:00,49.0,17.0,-100.00,East,100,0.0,5.0,27,0.00,,,-99.99,,2013-03-23 22:33:00,
2013-03-23 18:42:00,49.0,17.0,-100.00,NNE,20,0.0,7.0,27,0.00,,,-99.99,,2013-03-23 22:42:00,
2013-03-23 18:52:00,48.0,17.0,-100.00,North,0,2.0,6.0,27,0.00,,,-99.99,,2013-03-23 22:52:00,
2013-03-23 19:02:00,48.0,18.0,-100.00,North,0,0.0,3.0,29,0.00,,,-99.99,,2013-03-23 23:02:00,
2013-03-23 19:13:00,47.0,16.0,-100.00,North,0,2.0,5.0,28,0.00,,,-99.99,,2013-03-23 23:13:00,
2013-03-23 19:23:00,47.0,18.0,-100.00,North,0,1.0,4.0,31,0.00,,,-99.99,,2013-03-23 23:23:00,
2013-03-23 19:33:00,46.0,18.0,-100.00,North,0,1.0,4.0,31,0.00,,,-99.99,,2013-03-23 23:33:00,
2013-03-23 19:43:00,46.0,18.0,-100.00,NNE,20,0.0,5.0,32,0.00,,,-99.99,,2013-03-23 23:43:00,
2013-03-23 19:52:00,45.0,19.0,-100.00,NE,35,1.0,3.0,35,0.00,,,-99.99,,2013-03-23 23:52:00,
2013-03-23 20:02:00,45.0,19.0,-100.00,NNE,20,0.0,3.0,36,0.00,,,-99.99,,2013-03-24 00:02:00,
2013-03-23 20:13:00,44.0,19.0,-100.00,NNE,25,0.0,3.0,36,0.00,,,-99.99,,2013-03-24 00:13:00,
2013-03-23 20:22:00,44.0,20.0,-100.00,NNE,20,0.0,4.0,38,0.00,,,-99.99,,2013-03-24 00:22:00,
2013-03-23 20:33:00,42.0,22.0,-100.00,WNW,295,0.0,2.0,44,0.00,,,-99.99,,2013-03-24 00:33:00,
2013-03-23 20:42:00,39.0,21.0,-100.00,SSW,195,0.0,0.0,48,0.00,,,-99.99,,2013-03-24 00:42:00,
2013-03-23 20:52:00,39.0,23.0,-100.00,South,180,0.0,0.0,51,0.00,,,-99.99,,2013-03-24 00:52:00,
2013-03-23 21:02:00,37.0,23.0,-100.00,SW,225,0.0,2.0,56,0.00,,,-99.99,,2013-03-24 01:02:00,
2013-03-23 21:12:00,37.0,24.0,-100.00,SSW,200,0.0,2.0,60,0.00,,,-99.99,,2013-03-24 01:12:00,
2013-03-23 21:22:00,37.0,22.0,-100.00,SSW,210,0.0,1.0,55,0.00,,,-99.99,,2013-03-24 01:22:00,
2013-03-23 21:33:00,36.0,24.0,-100.00,South,175,0.0,1.0,62,0.00,,,-99.99,,2013-03-24 01:33:00,
2013-03-23 21:42:00,34.0,24.0,-100.00,South,190,0.0,1.0,64,0.00,,,-99.99,,2013-03-24 01:42:00,
2013-03-23 21:52:00,35.0,24.0,-100.00,SSW,200,0.0,1.0,65,0.00,,,-99.99,,2013-03-24 01:52:00,
2013-03-23 22:03:00,33.0,24.0,-100.00,SSE,160,0.0,0.0,69,0.00,,,-99.99,,2013-03-24 02:03:00,
2013-03-23 22:12:00,33.0,24.0,-100.00,SSE,155,0.0,1.0,67,0.00,,,-99.99,,2013-03-24 02:12:00,
2013-03-23 22:22:00,33.0,25.0,-100.00,SW,225,0.0,2.0,71,0.00,,,-99.99,,2013-03-24 02:22:00,
2013-03-23 22:32:00,32.0,24.0,-100.00,SSW,195,0.0,2.0,73,0.00,,,-99.99,,2013-03-24 02:32:00,
2013-03-23 22:42:00,32.0,23.0,-100.00,South,175,0.0,1.0,70,0.00,,,-99.99,,2013-03-24 02:42:00,
2013-03-23 22:52:00,31.0,24.0,-100.00,WSW,245,0.0,0.0,72,0.00,,,-99.99,,2013-03-24 02:52:00,
2013-03-23 23:02:00,31.0,24.0,-100.00,SSW,205,0.0,0.0,73,0.00,,,-99.99,,2013-03-24 03:02:00,
2013-03-23 23:12:00,31.0,24.0,-100.00,South,185,0.0,0.0,76,0.00,,,-99.99,,2013-03-24 03:12:00,
2013-03-23 23:23:00,30.0,24.0,-100.00,South,185,0.0,1.0,75,0.00,,,-99.99,,2013-03-24 03:23:00,
2013-03-23 23:33:00,30.0,23.0,-100.00,South,170,0.0,1.0,75,0.00,,,-99.99,,2013-03-24 03:33:00,
2013-03-23 23:42:00,30.0,23.0,-100.00,South,190,0.0,0.0,75,0.00,,,-99.99,,2013-03-24 03:42:00,
2013-03-23 23:53:00,30.0,23.0,-100.00,South,185,0.0,1.0,75,0.00,,,-99.99,,2013-03-24 03:53:00,